Deva — A8OK3 — position and weather

sailwx.info

Track history (hours):
 
Tides and Currents Weather Stations Pressure Air Temp Water Temp Dewpoint Dewpoint Depression Visibility Wind Speed Wind Dir Waves Ship Positions

Deva

Last reported at 2014-Aug-22 09:30 UTC. Time now 2014-Aug-22 09:56 UTC.
Position N 53°55' E 007°52'.

Length 259 m; draft 9.4 m.

Type: Ship (hazmat cat A). MMSI: 636013644.

Date/timePositionNaut miles runAvg speedWind from/ knotsBaromVisibWave heightAir tempDewpointWater temp
2014-Aug-22 09:30N 53°55' E 007°52'0 0.0
2014-Aug-22 08:33N 53°55' E 007°52'0 0.0
2014-Aug-22 07:30N 53°55' E 007°52'0 0.0
2014-Aug-22 06:33N 53°55' E 007°52'0 0.0
2014-Aug-22 05:27N 53°55' E 007°52'0 0.0
2014-Aug-22 04:30N 53°55' E 007°52'0 0.1
2014-Aug-22 03:27N 53°55' E 007°52'0 0.0
2014-Aug-22 02:33N 53°55' E 007°52'0 0.0
2014-Aug-22 01:33N 53°55' E 007°51'0 0.1
2014-Aug-22 00:33N 53°55' E 007°51'0 0.0
2014-Aug-21 23:24N 53°55' E 007°51'0 0.0
2014-Aug-21 22:30N 53°55' E 007°51'0 0.1
2014-Aug-21 21:33N 53°55' E 007°51'0 0.0
2014-Aug-21 20:33N 53°55' E 007°52'0 0.0
2014-Aug-21 19:30N 53°55' E 007°52'0 0.1
2014-Aug-21 18:33N 53°55' E 007°52'8 7.7
2014-Aug-21 17:29N 53°55' E 007°38'3313.7
2014-Aug-21 15:06N 53°48' E 006°43'813.3
2014-Aug-21 14:31N 53°46' E 006°31'1413.0
2014-Aug-21 13:27N 53°42' E 006°08'1112.7
2014-Aug-21 12:33N 53°38' E 005°50'1312.5
2014-Aug-21 11:33N 53°35' E 005°30'1212.2
2014-Aug-21 10:33N 53°31' E 005°11'1212.0
2014-Aug-21 09:33N 53°27' E 004°52'1111.1
2014-Aug-21 08:33N 53°19' E 004°38'1211.9
2014-Aug-21 07:33N 53°09' E 004°29'1212.1
2014-Aug-21 06:33N 52°58' E 004°18'1411.7
2014-Aug-21 05:22N 52°46' E 004°08'1011.9
2014-Aug-21 04:33N 52°38' E 003°59'1211.9
2014-Aug-21 03:33N 52°26' E 003°53'1212.4
2014-Aug-21 02:34N 52°14' E 003°53'1212.3
2014-Aug-21 01:34N 52°02' E 003°58'1110.7
2014-Aug-21 00:33N 51°56' E 004°12'8 7.6
2014-Aug-20 23:33N 51°54' E 004°24'1 1.3
2014-Aug-20 22:33N 51°54' E 004°26'0 0.0
2014-Aug-20 21:33N 51°54' E 004°26'0 0.0
2014-Aug-20 20:33N 51°54' E 004°26'0 0.0
2014-Aug-20 19:33N 51°54' E 004°26'0 0.0
2014-Aug-20 18:33N 51°54' E 004°26'0 0.0
2014-Aug-20 17:33N 51°54' E 004°26'0 0.0
2014-Aug-20 16:33N 51°54' E 004°26'0 0.0
2014-Aug-20 15:32N 51°54' E 004°26'0 0.0
2014-Aug-20 14:32N 51°54' E 004°26'0 0.0
2014-Aug-20 13:32N 51°54' E 004°26'0 0.0
2014-Aug-20 12:32N 51°54' E 004°26'0 0.0
2014-Aug-20 11:32N 51°54' E 004°26'0 0.0
2014-Aug-20 10:26N 51°54' E 004°26'0 0.0
2014-Aug-20 09:32N 51°54' E 004°26'0 0.0
2014-Aug-20 08:32N 51°54' E 004°26'0 0.0
2014-Aug-20 07:32N 51°54' E 004°26'0 0.0
2014-Aug-20 06:32N 51°54' E 004°26'0 0.0
2014-Aug-20 05:32N 51°54' E 004°26'0 0.0
2014-Aug-20 04:32N 51°54' E 004°26'0 0.2
2014-Aug-20 03:33N 51°54' E 004°26'7 6.8
2014-Aug-20 02:33N 51°55' E 004°15'1211.6
2014-Aug-20 01:33N 52°00' E 003°59'1212.2
2014-Aug-20 00:33N 51°58' E 003°39'62 8.9
2014-Aug-19 17:33N 51°50' E 001°59'8 7.8
2014-Aug-19 16:33N 51°48' E 001°47'8 7.9
2014-Aug-19 15:33N 51°51' E 001°36'1110.7
2014-Aug-19 14:33N 51°55' E 001°20'2 2.5
2014-Aug-19 13:33N 51°58' E 001°18'0 0.0
2014-Aug-19 12:33N 51°58' E 001°18'0 0.0
2014-Aug-19 11:33N 51°58' E 001°18'0 0.0
2014-Aug-19 10:33N 51°58' E 001°18'0 0.0
2014-Aug-19 09:33N 51°58' E 001°18'0 0.0
2014-Aug-19 08:33N 51°58' E 001°18'0 0.0
2014-Aug-19 07:33N 51°58' E 001°18'0 0.0
2014-Aug-19 06:33N 51°58' E 001°18'0 0.0
2014-Aug-19 05:33N 51°58' E 001°18'0 0.0
2014-Aug-19 04:33N 51°58' E 001°18'0 0.0
2014-Aug-19 03:33N 51°58' E 001°18'0 0.0
2014-Aug-19 02:33N 51°58' E 001°18'0 0.0
2014-Aug-19 01:33N 51°58' E 001°18'0 0.0
2014-Aug-19 00:33N 51°58' E 001°18'0 0.0
2014-Aug-18 23:33N 51°58' E 001°18'0 0.0
2014-Aug-18 22:33N 51°58' E 001°18'0 0.0
2014-Aug-18 21:33N 51°58' E 001°18'0 0.0
2014-Aug-18 20:33N 51°58' E 001°18'0 0.0
2014-Aug-18 19:33N 51°58' E 001°18'0 0.4
2014-Aug-18 18:33N 51°57' E 001°18'8 7.6
2014-Aug-18 17:33N 51°56' E 001°30'8 8.2
2014-Aug-18 16:33N 51°51' E 001°41'6 5.7
2014-Aug-18 15:33N 51°56' E 001°46'2 1.9
2014-Aug-18 14:33N 51°56' E 001°49'6 6.1
2014-Aug-18 13:33N 51°50' E 001°48'7 6.6
2014-Aug-18 12:33N 51°43' E 001°49'7 7.1
2014-Aug-18 11:33N 51°36' E 001°50'8 8.4
2014-Aug-18 10:33N 51°28' E 001°56'9 9.2
2014-Aug-18 09:33N 51°19' E 001°58'1313.1
2014-Aug-18 08:33N 51°09' E 001°44'1413.7
2014-Aug-18 07:33N 50°58' E 001°31'1413.6
2014-Aug-18 06:33N 50°46' E 001°22'1313.2
2014-Aug-18 05:32N 50°35' E 001°09'1313.2
2014-Aug-18 04:33N 50°29' E 000°51'1413.5
2014-Aug-18 03:32N 50°25' E 000°30'  
2014-Aug-13 09:33N 38°26' E 007°42'1717.4
2014-Aug-13 08:34N 38°30' E 008°04'1817.9
2014-Aug-13 07:34N 38°35' E 008°26'1817.6
2014-Aug-13 06:34N 38°39' E 008°48'1817.5
2014-Aug-13 05:33N 38°46' E 009°09'1717.3
2014-Aug-13 04:33N 38°53' E 009°29'1917.3
2014-Aug-13 03:28N 39°00' E 009°51'1617.5
2014-Aug-13 02:33N 39°06' E 010°10'3517.3
2014-Aug-13 00:29N 39°20' E 010°53'2117.3
2014-Aug-12 23:16N 39°30' E 011°17'1317.6
2014-Aug-12 22:33N 39°35' E 011°32'7117.4
2014-Aug-12 18:28N 40°03' E 012°57'1617.5
2014-Aug-12 17:33N 40°09' E 013°16'1717.3
2014-Aug-12 16:33N 40°16' E 013°37'1917.4
2014-Aug-12 15:29N 40°24' E 013°59'1617.2
2014-Aug-12 14:34N 40°30' E 014°18'1817.6
2014-Aug-12 13:33N 40°37' E 014°40'5 5.1
2014-Aug-12 12:31N 40°40' E 014°45'0 0.0
2014-Aug-12 11:31N 40°40' E 014°45'0 0.0
2014-Aug-12 10:31N 40°40' E 014°45'  
Track history (hours):
 
Tides and Currents Weather Stations Pressure Air Temp Water Temp Dewpoint Dewpoint Depression Visibility Wind Speed Wind Dir Waves Ship Positions

Deva

Last reported at 2014-Aug-22 09:30 UTC. Time now 2014-Aug-22 09:56 UTC.
Position N 53°55' E 007°52'.

Length 259 m; draft 9.4 m.

Type: Ship (hazmat cat A). MMSI: 636013644.

Date/timePositionNaut miles runAvg speedWind from/ knotsBaromVisibWave heightAir tempDewpointWater temp
2014-Aug-22 09:30N 53°55' E 007°52'0 0.0
2014-Aug-22 08:33N 53°55' E 007°52'0 0.0
2014-Aug-22 07:30N 53°55' E 007°52'0 0.0
2014-Aug-22 06:33N 53°55' E 007°52'0 0.0
2014-Aug-22 05:27N 53°55' E 007°52'0 0.0
2014-Aug-22 04:30N 53°55' E 007°52'0 0.1
2014-Aug-22 03:27N 53°55' E 007°52'0 0.0
2014-Aug-22 02:33N 53°55' E 007°52'0 0.0
2014-Aug-22 01:33N 53°55' E 007°51'0 0.1
2014-Aug-22 00:33N 53°55' E 007°51'0 0.0
2014-Aug-21 23:24N 53°55' E 007°51'0 0.0
2014-Aug-21 22:30N 53°55' E 007°51'0 0.1
2014-Aug-21 21:33N 53°55' E 007°51'0 0.0
2014-Aug-21 20:33N 53°55' E 007°52'0 0.0
2014-Aug-21 19:30N 53°55' E 007°52'0 0.1
2014-Aug-21 18:33N 53°55' E 007°52'8 7.7
2014-Aug-21 17:29N 53°55' E 007°38'3313.7
2014-Aug-21 15:06N 53°48' E 006°43'813.3
2014-Aug-21 14:31N 53°46' E 006°31'1413.0
2014-Aug-21 13:27N 53°42' E 006°08'1112.7
2014-Aug-21 12:33N 53°38' E 005°50'1312.5
2014-Aug-21 11:33N 53°35' E 005°30'1212.2
2014-Aug-21 10:33N 53°31' E 005°11'1212.0
2014-Aug-21 09:33N 53°27' E 004°52'1111.1
2014-Aug-21 08:33N 53°19' E 004°38'1211.9
2014-Aug-21 07:33N 53°09' E 004°29'1212.1
2014-Aug-21 06:33N 52°58' E 004°18'1411.7
2014-Aug-21 05:22N 52°46' E 004°08'1011.9
2014-Aug-21 04:33N 52°38' E 003°59'1211.9
2014-Aug-21 03:33N 52°26' E 003°53'1212.4
2014-Aug-21 02:34N 52°14' E 003°53'1212.3
2014-Aug-21 01:34N 52°02' E 003°58'1110.7
2014-Aug-21 00:33N 51°56' E 004°12'8 7.6
2014-Aug-20 23:33N 51°54' E 004°24'1 1.3
2014-Aug-20 22:33N 51°54' E 004°26'0 0.0
2014-Aug-20 21:33N 51°54' E 004°26'0 0.0
2014-Aug-20 20:33N 51°54' E 004°26'0 0.0
2014-Aug-20 19:33N 51°54' E 004°26'0 0.0
2014-Aug-20 18:33N 51°54' E 004°26'0 0.0
2014-Aug-20 17:33N 51°54' E 004°26'0 0.0
2014-Aug-20 16:33N 51°54' E 004°26'0 0.0
2014-Aug-20 15:32N 51°54' E 004°26'0 0.0
2014-Aug-20 14:32N 51°54' E 004°26'0 0.0
2014-Aug-20 13:32N 51°54' E 004°26'0 0.0
2014-Aug-20 12:32N 51°54' E 004°26'0 0.0
2014-Aug-20 11:32N 51°54' E 004°26'0 0.0
2014-Aug-20 10:26N 51°54' E 004°26'0 0.0
2014-Aug-20 09:32N 51°54' E 004°26'0 0.0
2014-Aug-20 08:32N 51°54' E 004°26'0 0.0
2014-Aug-20 07:32N 51°54' E 004°26'0 0.0
2014-Aug-20 06:32N 51°54' E 004°26'0 0.0
2014-Aug-20 05:32N 51°54' E 004°26'0 0.0
2014-Aug-20 04:32N 51°54' E 004°26'0 0.2
2014-Aug-20 03:33N 51°54' E 004°26'7 6.8
2014-Aug-20 02:33N 51°55' E 004°15'1211.6
2014-Aug-20 01:33N 52°00' E 003°59'1212.2
2014-Aug-20 00:33N 51°58' E 003°39'62 8.9
2014-Aug-19 17:33N 51°50' E 001°59'8 7.8
2014-Aug-19 16:33N 51°48' E 001°47'8 7.9
2014-Aug-19 15:33N 51°51' E 001°36'1110.7
2014-Aug-19 14:33N 51°55' E 001°20'2 2.5
2014-Aug-19 13:33N 51°58' E 001°18'0 0.0
2014-Aug-19 12:33N 51°58' E 001°18'0 0.0
2014-Aug-19 11:33N 51°58' E 001°18'0 0.0
2014-Aug-19 10:33N 51°58' E 001°18'0 0.0
2014-Aug-19 09:33N 51°58' E 001°18'0 0.0
2014-Aug-19 08:33N 51°58' E 001°18'0 0.0
2014-Aug-19 07:33N 51°58' E 001°18'0 0.0
2014-Aug-19 06:33N 51°58' E 001°18'0 0.0
2014-Aug-19 05:33N 51°58' E 001°18'0 0.0
2014-Aug-19 04:33N 51°58' E 001°18'0 0.0
2014-Aug-19 03:33N 51°58' E 001°18'0 0.0
2014-Aug-19 02:33N 51°58' E 001°18'0 0.0
2014-Aug-19 01:33N 51°58' E 001°18'0 0.0
2014-Aug-19 00:33N 51°58' E 001°18'0 0.0
2014-Aug-18 23:33N 51°58' E 001°18'0 0.0
2014-Aug-18 22:33N 51°58' E 001°18'0 0.0
2014-Aug-18 21:33N 51°58' E 001°18'0 0.0
2014-Aug-18 20:33N 51°58' E 001°18'0 0.0
2014-Aug-18 19:33N 51°58' E 001°18'0 0.4
2014-Aug-18 18:33N 51°57' E 001°18'8 7.6
2014-Aug-18 17:33N 51°56' E 001°30'8 8.2
2014-Aug-18 16:33N 51°51' E 001°41'6 5.7
2014-Aug-18 15:33N 51°56' E 001°46'2 1.9
2014-Aug-18 14:33N 51°56' E 001°49'6 6.1
2014-Aug-18 13:33N 51°50' E 001°48'7 6.6
2014-Aug-18 12:33N 51°43' E 001°49'7 7.1
2014-Aug-18 11:33N 51°36' E 001°50'8 8.4
2014-Aug-18 10:33N 51°28' E 001°56'9 9.2
2014-Aug-18 09:33N 51°19' E 001°58'1313.1
2014-Aug-18 08:33N 51°09' E 001°44'1413.7
2014-Aug-18 07:33N 50°58' E 001°31'1413.6
2014-Aug-18 06:33N 50°46' E 001°22'1313.2
2014-Aug-18 05:32N 50°35' E 001°09'1313.2
2014-Aug-18 04:33N 50°29' E 000°51'1413.5
2014-Aug-18 03:32N 50°25' E 000°30'  
2014-Aug-13 09:33N 38°26' E 007°42'1717.4
2014-Aug-13 08:34N 38°30' E 008°04'1817.9
2014-Aug-13 07:34N 38°35' E 008°26'1817.6
2014-Aug-13 06:34N 38°39' E 008°48'1817.5
2014-Aug-13 05:33N 38°46' E 009°09'1717.3
2014-Aug-13 04:33N 38°53' E 009°29'1917.3
2014-Aug-13 03:28N 39°00' E 009°51'1617.5
2014-Aug-13 02:33N 39°06' E 010°10'3517.3
2014-Aug-13 00:29N 39°20' E 010°53'2117.3
2014-Aug-12 23:16N 39°30' E 011°17'1317.6
2014-Aug-12 22:33N 39°35' E 011°32'7117.4
2014-Aug-12 18:28N 40°03' E 012°57'1617.5
2014-Aug-12 17:33N 40°09' E 013°16'1717.3
2014-Aug-12 16:33N 40°16' E 013°37'1917.4
2014-Aug-12 15:29N 40°24' E 013°59'1617.2
2014-Aug-12 14:34N 40°30' E 014°18'1817.6
2014-Aug-12 13:33N 40°37' E 014°40'5 5.1
2014-Aug-12 12:31N 40°40' E 014°45'0 0.0
2014-Aug-12 11:31N 40°40' E 014°45'0 0.0
2014-Aug-12 10:31N 40°40' E 014°45'  

Dump ship's entire track history